sensor_id;sensor_type;location;lat;lon;timestamp;temperature;humidity
36424;DHT22;22458;45.328;9.514;2023-04-01T00:00:56;12.90;89.40
36424;DHT22;22458;45.328;9.514;2023-04-01T00:03:22;12.90;89.60
36424;DHT22;22458;45.328;9.514;2023-04-01T00:05:48;12.90;89.60
36424;DHT22;22458;45.328;9.514;2023-04-01T00:08:15;12.90;89.70
36424;DHT22;22458;45.328;9.514;2023-04-01T00:10:41;12.80;90.00
36424;DHT22;22458;45.328;9.514;2023-04-01T00:13:07;12.80;90.00
36424;DHT22;22458;45.328;9.514;2023-04-01T00:15:33;12.80;90.00
36424;DHT22;22458;45.328;9.514;2023-04-01T00:17:59;12.80;90.20
36424;DHT22;22458;45.328;9.514;2023-04-01T00:20:26;12.80;90.20
36424;DHT22;22458;45.328;9.514;2023-04-01T00:22:52;12.90;90.20
36424;DHT22;22458;45.328;9.514;2023-04-01T00:25:18;12.80;90.30
36424;DHT22;22458;45.328;9.514;2023-04-01T00:27:44;12.70;90.40
36424;DHT22;22458;45.328;9.514;2023-04-01T00:30:10;12.80;90.40
36424;DHT22;22458;45.328;9.514;2023-04-01T00:32:36;12.80;90.50
36424;DHT22;22458;45.328;9.514;2023-04-01T00:35:03;12.80;90.40
36424;DHT22;22458;45.328;9.514;2023-04-01T00:37:29;12.80;90.40
36424;DHT22;22458;45.328;9.514;2023-04-01T00:39:55;12.80;90.40
36424;DHT22;22458;45.328;9.514;2023-04-01T00:42:21;12.90;90.30
36424;DHT22;22458;45.328;9.514;2023-04-01T00:44:51;12.90;90.20
36424;DHT22;22458;45.328;9.514;2023-04-01T00:47:18;12.80;90.40
36424;DHT22;22458;45.328;9.514;2023-04-01T00:49:45;12.60;90.70
36424;DHT22;22458;45.328;9.514;2023-04-01T00:52:15;12.50;90.90
36424;DHT22;22458;45.328;9.514;2023-04-01T00:54:46;12.40;91.20
36424;DHT22;22458;45.328;9.514;2023-04-01T00:57:33;12.20;91.40
36424;DHT22;22458;45.328;9.514;2023-04-01T01:00:00;12.20;91.50
36424;DHT22;22458;45.328;9.514;2023-04-01T01:02:26;12.20;91.60
36424;DHT22;22458;45.328;9.514;2023-04-01T01:04:52;12.30;91.50
36424;DHT22;22458;45.328;9.514;2023-04-01T01:23:29;12.20;91.10
36424;DHT22;22458;45.328;9.514;2023-04-01T01:36:55;11.80;91.90
36424;DHT22;22458;45.328;9.514;2023-04-01T01:39:26;11.80;92.10
36424;DHT22;22458;45.328;9.514;2023-04-01T01:41:57;11.80;92.00
36424;DHT22;22458;45.328;9.514;2023-04-01T01:44:26;11.80;92.10
36424;DHT22;22458;45.328;9.514;2023-04-01T01:46:55;11.80;92.00
36424;DHT22;22458;45.328;9.514;2023-04-01T01:49:21;11.90;91.90
36424;DHT22;22458;45.328;9.514;2023-04-01T01:51:48;11.90;91.80
36424;DHT22;22458;45.328;9.514;2023-04-01T01:54:15;12.10;91.60
36424;DHT22;22458;45.328;9.514;2023-04-01T01:56:45;12.10;91.40
36424;DHT22;22458;45.328;9.514;2023-04-01T01:59:14;12.00;91.50
36424;DHT22;22458;45.328;9.514;2023-04-01T02:01:48;11.80;91.60
36424;DHT22;22458;45.328;9.514;2023-04-01T02:04:16;11.70;91.80
36424;DHT22;22458;45.328;9.514;2023-04-01T02:06:53;11.60;92.00
36424;DHT22;22458;45.328;9.514;2023-04-01T02:09:22;11.50;92.10
36424;DHT22;22458;45.328;9.514;2023-04-01T02:11:54;11.40;92.10
36424;DHT22;22458;45.328;9.514;2023-04-01T02:14:50;11.30;92.20
36424;DHT22;22458;45.328;9.514;2023-04-01T02:17:19;11.30;92.30
36424;DHT22;22458;45.328;9.514;2023-04-01T02:19:55;11.20;92.30
36424;DHT22;22458;45.328;9.514;2023-04-01T02:22:27;11.20;92.40
36424;DHT22;22458;45.328;9.514;2023-04-01T02:24:57;11.10;92.50
36424;DHT22;22458;45.328;9.514;2023-04-01T02:27:24;11.10;92.50
36424;DHT22;22458;45.328;9.514;2023-04-01T02:29:51;11.00;92.60
36424;DHT22;22458;45.328;9.514;2023-04-01T02:32:19;11.00;92.60
36424;DHT22;22458;45.328;9.514;2023-04-01T02:34:46;11.10;92.60
36424;DHT22;22458;45.328;9.514;2023-04-01T02:37:13;11.10;92.50
36424;DHT22;22458;45.328;9.514;2023-04-01T02:39:39;11.00;92.40
36424;DHT22;22458;45.328;9.514;2023-04-01T02:42:05;11.00;92.50
36424;DHT22;22458;45.328;9.514;2023-04-01T02:44:32;11.00;92.60
36424;DHT22;22458;45.328;9.514;2023-04-01T02:46:58;11.00;92.50
36424;DHT22;22458;45.328;9.514;2023-04-01T02:49:24;10.90;92.50
36424;DHT22;22458;45.328;9.514;2023-04-01T02:51:49;10.90;92.60
36424;DHT22;22458;45.328;9.514;2023-04-01T02:54:17;11.00;92.70
36424;DHT22;22458;45.328;9.514;2023-04-01T02:56:43;11.00;92.60
36424;DHT22;22458;45.328;9.514;2023-04-01T02:59:09;11.10;92.50
36424;DHT22;22458;45.328;9.514;2023-04-01T03:01:35;11.10;92.30
36424;DHT22;22458;45.328;9.514;2023-04-01T03:04:01;11.10;92.30
36424;DHT22;22458;45.328;9.514;2023-04-01T03:06:27;11.10;92.20
36424;DHT22;22458;45.328;9.514;2023-04-01T03:08:52;11.10;92.10
36424;DHT22;22458;45.328;9.514;2023-04-01T03:11:18;11.10;92.00
36424;DHT22;22458;45.328;9.514;2023-04-01T03:13:44;11.20;91.90
36424;DHT22;22458;45.328;9.514;2023-04-01T03:16:10;11.10;91.90
36424;DHT22;22458;45.328;9.514;2023-04-01T03:18:36;11.10;91.90
36424;DHT22;22458;45.328;9.514;2023-04-01T03:21:22;11.10;91.90
36424;DHT22;22458;45.328;9.514;2023-04-01T03:23:49;11.20;91.80
36424;DHT22;22458;45.328;9.514;2023-04-01T03:26:15;11.30;91.70
36424;DHT22;22458;45.328;9.514;2023-04-01T03:28:41;11.50;91.40
36424;DHT22;22458;45.328;9.514;2023-04-01T03:31:07;11.50;91.20
36424;DHT22;22458;45.328;9.514;2023-04-01T03:33:40;11.40;91.20
36424;DHT22;22458;45.328;9.514;2023-04-01T03:36:06;11.30;91.30
36424;DHT22;22458;45.328;9.514;2023-04-01T03:38:34;11.30;91.40
36424;DHT22;22458;45.328;9.514;2023-04-01T03:41:00;11.30;91.50
36424;DHT22;22458;45.328;9.514;2023-04-01T03:43:26;11.30;91.40
36424;DHT22;22458;45.328;9.514;2023-04-01T03:45:53;11.30;91.30
36424;DHT22;22458;45.328;9.514;2023-04-01T03:48:20;11.20;91.30
36424;DHT22;22458;45.328;9.514;2023-04-01T03:50:46;11.10;91.50
36424;DHT22;22458;45.328;9.514;2023-04-01T03:53:14;11.00;91.60
36424;DHT22;22458;45.328;9.514;2023-04-01T03:55:43;10.90;91.70
36424;DHT22;22458;45.328;9.514;2023-04-01T03:58:09;11.00;91.90
36424;DHT22;22458;45.328;9.514;2023-04-01T04:00:35;11.00;91.80
36424;DHT22;22458;45.328;9.514;2023-04-01T04:03:02;11.10;91.80
36424;DHT22;22458;45.328;9.514;2023-04-01T04:05:31;11.10;91.80
36424;DHT22;22458;45.328;9.514;2023-04-01T04:07:57;11.00;91.90
36424;DHT22;22458;45.328;9.514;2023-04-01T04:10:23;10.90;91.90
36424;DHT22;22458;45.328;9.514;2023-04-01T04:12:51;10.90;92.00
36424;DHT22;22458;45.328;9.514;2023-04-01T04:15:18;10.80;92.00
36424;DHT22;22458;45.328;9.514;2023-04-01T04:17:45;10.80;92.10
36424;DHT22;22458;45.328;9.514;2023-04-01T04:20:11;10.80;92.10
36424;DHT22;22458;45.328;9.514;2023-04-01T04:22:37;10.70;92.10
36424;DHT22;22458;45.328;9.514;2023-04-01T04:25:06;10.70;92.20
36424;DHT22;22458;45.328;9.514;2023-04-01T04:27:33;10.70;92.20
36424;DHT22;22458;45.328;9.514;2023-04-01T04:30:07;10.80;92.10
36424;DHT22;22458;45.328;9.514;2023-04-01T04:32:33;10.80;92.10
36424;DHT22;22458;45.328;9.514;2023-04-01T04:34:59;10.80;92.10
36424;DHT22;22458;45.328;9.514;2023-04-01T04:37:26;10.80;92.00
36424;DHT22;22458;45.328;9.514;2023-04-01T04:39:52;10.80;92.00
36424;DHT22;22458;45.328;9.514;2023-04-01T04:42:18;10.80;92.00
36424;DHT22;22458;45.328;9.514;2023-04-01T04:44:44;10.90;92.00
36424;DHT22;22458;45.328;9.514;2023-04-01T04:47:10;10.90;91.90
36424;DHT22;22458;45.328;9.514;2023-04-01T04:49:36;10.90;91.80
36424;DHT22;22458;45.328;9.514;2023-04-01T04:52:06;11.00;91.70
36424;DHT22;22458;45.328;9.514;2023-04-01T04:54:32;11.00;91.60
36424;DHT22;22458;45.328;9.514;2023-04-01T04:57:00;11.20;91.50
36424;DHT22;22458;45.328;9.514;2023-04-01T04:59:30;11.30;91.30
36424;DHT22;22458;45.328;9.514;2023-04-01T05:02:02;11.40;91.00
36424;DHT22;22458;45.328;9.514;2023-04-01T05:04:28;11.50;90.90
36424;DHT22;22458;45.328;9.514;2023-04-01T05:06:54;11.50;90.70
36424;DHT22;22458;45.328;9.514;2023-04-01T05:09:20;11.60;90.50
36424;DHT22;22458;45.328;9.514;2023-04-01T05:11:46;11.60;90.30
36424;DHT22;22458;45.328;9.514;2023-04-01T05:14:17;11.40;90.20
36424;DHT22;22458;45.328;9.514;2023-04-01T05:16:52;11.30;90.20
36424;DHT22;22458;45.328;9.514;2023-04-01T05:19:18;11.10;90.40
36424;DHT22;22458;45.328;9.514;2023-04-01T05:21:43;11.00;90.40
36424;DHT22;22458;45.328;9.514;2023-04-01T05:24:09;10.90;90.60
36424;DHT22;22458;45.328;9.514;2023-04-01T05:26:36;10.80;90.70
36424;DHT22;22458;45.328;9.514;2023-04-01T05:29:05;10.70;90.80
36424;DHT22;22458;45.328;9.514;2023-04-01T05:31:32;10.80;90.70
36424;DHT22;22458;45.328;9.514;2023-04-01T05:34:00;10.90;90.50
36424;DHT22;22458;45.328;9.514;2023-04-01T05:36:26;10.90;90.40
36424;DHT22;22458;45.328;9.514;2023-04-01T05:38:57;10.90;90.50
36424;DHT22;22458;45.328;9.514;2023-04-01T05:41:24;11.00;90.40
36424;DHT22;22458;45.328;9.514;2023-04-01T05:43:50;11.10;90.20
36424;DHT22;22458;45.328;9.514;2023-04-01T05:46:35;11.10;90.10
36424;DHT22;22458;45.328;9.514;2023-04-01T05:49:11;11.20;90.00
36424;DHT22;22458;45.328;9.514;2023-04-01T05:51:37;11.20;90.00
36424;DHT22;22458;45.328;9.514;2023-04-01T05:54:04;11.10;90.00
36424;DHT22;22458;45.328;9.514;2023-04-01T05:56:31;11.10;90.20
36424;DHT22;22458;45.328;9.514;2023-04-01T05:58:56;11.20;90.20
36424;DHT22;22458;45.328;9.514;2023-04-01T06:01:23;11.30;90.10
36424;DHT22;22458;45.328;9.514;2023-04-01T06:03:49;11.30;90.20
36424;DHT22;22458;45.328;9.514;2023-04-01T06:06:34;11.20;90.30
36424;DHT22;22458;45.328;9.514;2023-04-01T06:09:26;11.30;90.40
36424;DHT22;22458;45.328;9.514;2023-04-01T06:15:06;11.20;90.60
36424;DHT22;22458;45.328;9.514;2023-04-01T06:25:52;11.20;90.90
36424;DHT22;22458;45.328;9.514;2023-04-01T06:34:00;11.50;90.50
36424;DHT22;22458;45.328;9.514;2023-04-01T06:54:36;12.20;86.20
36424;DHT22;22458;45.328;9.514;2023-04-01T06:57:20;12.30;85.60
36424;DHT22;22458;45.328;9.514;2023-04-01T06:59:47;12.50;85.60
36424;DHT22;22458;45.328;9.514;2023-04-01T07:04:47;12.70;84.60
36424;DHT22;22458;45.328;9.514;2023-04-01T07:10:13;12.80;84.40
36424;DHT22;22458;45.328;9.514;2023-04-01T07:13:02;12.90;84.70
36424;DHT22;22458;45.328;9.514;2023-04-01T07:16:08;13.00;84.70
36424;DHT22;22458;45.328;9.514;2023-04-01T07:22:05;12.90;84.20
36424;DHT22;22458;45.328;9.514;2023-04-01T07:24:51;12.90;84.60
36424;DHT22;22458;45.328;9.514;2023-04-01T07:27:17;13.00;84.80
36424;DHT22;22458;45.328;9.514;2023-04-01T07:29:44;13.10;84.50
36424;DHT22;22458;45.328;9.514;2023-04-01T07:32:20;13.20;84.40
36424;DHT22;22458;45.328;9.514;2023-04-01T07:35:07;13.20;84.10
36424;DHT22;22458;45.328;9.514;2023-04-01T07:49:09;13.30;84.10
36424;DHT22;22458;45.328;9.514;2023-04-01T07:54:12;13.40;84.40
36424;DHT22;22458;45.328;9.514;2023-04-01T08:02:42;13.80;83.80
36424;DHT22;22458;45.328;9.514;2023-04-01T08:05:24;13.90;83.60
36424;DHT22;22458;45.328;9.514;2023-04-01T08:23:05;14.40;82.20
36424;DHT22;22458;45.328;9.514;2023-04-01T08:25:56;14.50;81.80
36424;DHT22;22458;45.328;9.514;2023-04-01T08:28:37;14.60;81.70
36424;DHT22;22458;45.328;9.514;2023-04-01T08:31:36;14.70;81.30
36424;DHT22;22458;45.328;9.514;2023-04-01T08:34:11;14.90;81.30
36424;DHT22;22458;45.328;9.514;2023-04-01T08:36:42;15.00;81.20
36424;DHT22;22458;45.328;9.514;2023-04-01T08:39:18;15.10;81.10
36424;DHT22;22458;45.328;9.514;2023-04-01T09:04:21;16.10;76.50
36424;DHT22;22458;45.328;9.514;2023-04-01T09:26:31;16.90;72.40
36424;DHT22;22458;45.328;9.514;2023-04-01T09:29:02;16.90;71.90
36424;DHT22;22458;45.328;9.514;2023-04-01T09:42:56;17.30;71.20
36424;DHT22;22458;45.328;9.514;2023-04-01T09:45:44;17.60;71.00
36424;DHT22;22458;45.328;9.514;2023-04-01T09:48:53;17.80;69.90
36424;DHT22;22458;45.328;9.514;2023-04-01T09:51:30;17.90;69.80
36424;DHT22;22458;45.328;9.514;2023-04-01T10:22:27;19.40;64.30
36424;DHT22;22458;45.328;9.514;2023-04-01T10:28:16;20.30;60.80
36424;DHT22;22458;45.328;9.514;2023-04-01T10:31:17;20.60;59.70
36424;DHT22;22458;45.328;9.514;2023-04-01T10:36:54;20.60;58.00
36424;DHT22;22458;45.328;9.514;2023-04-01T10:40:17;20.60;57.90
36424;DHT22;22458;45.328;9.514;2023-04-01T10:42:53;20.50;57.00
36424;DHT22;22458;45.328;9.514;2023-04-01T10:46:01;20.40;56.90
36424;DHT22;22458;45.328;9.514;2023-04-01T10:48:53;20.40;57.00
36424;DHT22;22458;45.328;9.514;2023-04-01T11:01:27;20.40;55.60
36424;DHT22;22458;45.328;9.514;2023-04-01T11:07:46;20.80;55.20
36424;DHT22;22458;45.328;9.514;2023-04-01T11:31:47;23.10;47.50
36424;DHT22;22458;45.328;9.514;2023-04-01T11:40:27;22.50;44.90
36424;DHT22;22458;45.328;9.514;2023-04-01T11:43:45;22.50;43.80
36424;DHT22;22458;45.328;9.514;2023-04-01T11:46:51;22.40;42.60
36424;DHT22;22458;45.328;9.514;2023-04-01T11:55:31;22.50;40.40
36424;DHT22;22458;45.328;9.514;2023-04-01T11:58:11;22.60;40.00
36424;DHT22;22458;45.328;9.514;2023-04-01T12:01:07;22.60;39.30
36424;DHT22;22458;45.328;9.514;2023-04-01T12:06:51;22.50;38.00
36424;DHT22;22458;45.328;9.514;2023-04-01T12:18:20;22.80;38.60
36424;DHT22;22458;45.328;9.514;2023-04-01T12:29:04;22.70;38.00
36424;DHT22;22458;45.328;9.514;2023-04-01T12:34:36;22.80;36.50
36424;DHT22;22458;45.328;9.514;2023-04-01T12:37:17;22.90;36.40
36424;DHT22;22458;45.328;9.514;2023-04-01T12:42:58;23.10;36.10
36424;DHT22;22458;45.328;9.514;2023-04-01T12:50:50;23.30;36.10
36424;DHT22;22458;45.328;9.514;2023-04-01T13:02:11;23.60;35.00
36424;DHT22;22458;45.328;9.514;2023-04-01T13:07:47;24.10;33.50
36424;DHT22;22458;45.328;9.514;2023-04-01T13:10:44;24.10;33.40
36424;DHT22;22458;45.328;9.514;2023-04-01T13:16:01;24.20;33.40
36424;DHT22;22458;45.328;9.514;2023-04-01T13:21:48;24.30;32.50
36424;DHT22;22458;45.328;9.514;2023-04-01T13:24:31;24.20;32.60
36424;DHT22;22458;45.328;9.514;2023-04-01T13:27:14;24.50;32.40
36424;DHT22;22458;45.328;9.514;2023-04-01T13:30:49;24.50;31.80
36424;DHT22;22458;45.328;9.514;2023-04-01T13:35:57;24.40;32.00
36424;DHT22;22458;45.328;9.514;2023-04-01T13:41:54;24.70;31.50
36424;DHT22;22458;45.328;9.514;2023-04-01T13:44:38;24.70;30.90
36424;DHT22;22458;45.328;9.514;2023-04-01T13:52:50;24.80;31.50
36424;DHT22;22458;45.328;9.514;2023-04-01T14:01:10;24.10;31.10
36424;DHT22;22458;45.328;9.514;2023-04-01T14:04:17;24.10;31.40
36424;DHT22;22458;45.328;9.514;2023-04-01T14:10:07;24.20;31.30
36424;DHT22;22458;45.328;9.514;2023-04-01T14:24:42;23.90;31.00
36424;DHT22;22458;45.328;9.514;2023-04-01T14:33:23;23.90;30.90
36424;DHT22;22458;45.328;9.514;2023-04-01T14:43:47;24.10;30.50
36424;DHT22;22458;45.328;9.514;2023-04-01T14:49:36;24.10;30.90
36424;DHT22;22458;45.328;9.514;2023-04-01T14:52:14;24.20;30.80
36424;DHT22;22458;45.328;9.514;2023-04-01T14:54:44;24.20;30.50
36424;DHT22;22458;45.328;9.514;2023-04-01T14:57:27;24.40;30.90
36424;DHT22;22458;45.328;9.514;2023-04-01T15:00:00;24.70;30.60
36424;DHT22;22458;45.328;9.514;2023-04-01T15:05:35;25.10;30.00
36424;DHT22;22458;45.328;9.514;2023-04-01T15:19:14;26.80;29.60
36424;DHT22;22458;45.328;9.514;2023-04-01T15:27:13;25.80;29.60
36424;DHT22;22458;45.328;9.514;2023-04-01T15:29:53;25.60;29.80
36424;DHT22;22458;45.328;9.514;2023-04-01T15:35:43;25.60;29.90
36424;DHT22;22458;45.328;9.514;2023-04-01T15:41:06;26.10;29.90
36424;DHT22;22458;45.328;9.514;2023-04-01T15:43:37;26.00;29.30
36424;DHT22;22458;45.328;9.514;2023-04-01T15:49:04;25.30;29.40
36424;DHT22;22458;45.328;9.514;2023-04-01T16:00:40;25.00;30.20
36424;DHT22;22458;45.328;9.514;2023-04-01T16:06:09;24.90;30.30
36424;DHT22;22458;45.328;9.514;2023-04-01T16:14:07;25.90;30.40
36424;DHT22;22458;45.328;9.514;2023-04-01T16:20:03;25.60;30.10
36424;DHT22;22458;45.328;9.514;2023-04-01T16:22:41;25.30;30.50
36424;DHT22;22458;45.328;9.514;2023-04-01T16:25:33;25.10;30.80
36424;DHT22;22458;45.328;9.514;2023-04-01T16:31:35;24.80;31.50
36424;DHT22;22458;45.328;9.514;2023-04-01T16:34:16;24.80;31.50
36424;DHT22;22458;45.328;9.514;2023-04-01T16:37:00;24.70;31.70
36424;DHT22;22458;45.328;9.514;2023-04-01T16:39:44;24.50;31.90
36424;DHT22;22458;45.328;9.514;2023-04-01T16:42:34;24.40;32.40
36424;DHT22;22458;45.328;9.514;2023-04-01T16:45:06;24.70;32.40
36424;DHT22;22458;45.328;9.514;2023-04-01T16:47:55;25.30;32.50
36424;DHT22;22458;45.328;9.514;2023-04-01T16:50:24;25.80;32.00
36424;DHT22;22458;45.328;9.514;2023-04-01T16:53:14;26.70;31.60
36424;DHT22;22458;45.328;9.514;2023-04-01T16:58:36;28.20;29.90
36424;DHT22;22458;45.328;9.514;2023-04-01T17:01:04;28.10;29.80
36424;DHT22;22458;45.328;9.514;2023-04-01T17:03:38;27.60;30.00
36424;DHT22;22458;45.328;9.514;2023-04-01T17:21:55;24.40;31.10
36424;DHT22;22458;45.328;9.514;2023-04-01T17:27:49;24.10;31.40
36424;DHT22;22458;45.328;9.514;2023-04-01T17:36:19;23.70;32.10
36424;DHT22;22458;45.328;9.514;2023-04-01T17:47:21;23.10;33.70
36424;DHT22;22458;45.328;9.514;2023-04-01T17:50:07;22.90;33.80
36424;DHT22;22458;45.328;9.514;2023-04-01T17:53:06;22.70;34.10
36424;DHT22;22458;45.328;9.514;2023-04-01T17:58:19;22.30;34.80
36424;DHT22;22458;45.328;9.514;2023-04-01T18:06:42;21.80;35.60
36424;DHT22;22458;45.328;9.514;2023-04-01T18:09:36;21.60;35.70
36424;DHT22;22458;45.328;9.514;2023-04-01T18:20:23;21.00;36.60
36424;DHT22;22458;45.328;9.514;2023-04-01T18:23:09;21.00;36.80
36424;DHT22;22458;45.328;9.514;2023-04-01T18:25:45;20.80;37.00
36424;DHT22;22458;45.328;9.514;2023-04-01T18:36:39;20.40;38.10
36424;DHT22;22458;45.328;9.514;2023-04-01T18:39:37;20.30;38.40
36424;DHT22;22458;45.328;9.514;2023-04-01T18:42:53;20.20;38.40
36424;DHT22;22458;45.328;9.514;2023-04-01T18:53:35;19.80;38.70
36424;DHT22;22458;45.328;9.514;2023-04-01T18:56:05;19.70;38.80
36424;DHT22;22458;45.328;9.514;2023-04-01T18:58:35;19.70;38.90
36424;DHT22;22458;45.328;9.514;2023-04-01T19:06:55;19.30;39.50
36424;DHT22;22458;45.328;9.514;2023-04-01T19:09:30;19.10;39.70
36424;DHT22;22458;45.328;9.514;2023-04-01T19:17:50;18.90;40.60
36424;DHT22;22458;45.328;9.514;2023-04-01T19:20:26;18.70;41.00
36424;DHT22;22458;45.328;9.514;2023-04-01T19:25:55;18.60;41.90
36424;DHT22;22458;45.328;9.514;2023-04-01T19:38:41;17.60;43.90
36424;DHT22;22458;45.328;9.514;2023-04-01T19:46:26;17.50;44.70
36424;DHT22;22458;45.328;9.514;2023-04-01T19:57:01;17.20;45.80
36424;DHT22;22458;45.328;9.514;2023-04-01T19:59:45;17.00;46.20
36424;DHT22;22458;45.328;9.514;2023-04-01T20:04:46;16.90;46.90
36424;DHT22;22458;45.328;9.514;2023-04-01T20:07:43;16.80;46.40
36424;DHT22;22458;45.328;9.514;2023-04-01T20:15:44;16.70;46.50
36424;DHT22;22458;45.328;9.514;2023-04-01T20:21:02;16.80;46.40
36424;DHT22;22458;45.328;9.514;2023-04-01T20:26:23;16.80;46.30
36424;DHT22;22458;45.328;9.514;2023-04-01T20:37:48;16.80;46.20
36424;DHT22;22458;45.328;9.514;2023-04-01T20:43:23;16.60;46.80
36424;DHT22;22458;45.328;9.514;2023-04-01T20:51:30;15.80;48.50
36424;DHT22;22458;45.328;9.514;2023-04-01T20:59:52;15.50;49.60
36424;DHT22;22458;45.328;9.514;2023-04-01T21:03:05;15.50;49.70
36424;DHT22;22458;45.328;9.514;2023-04-01T21:08:36;15.70;50.10
36424;DHT22;22458;45.328;9.514;2023-04-01T21:22:54;15.80;50.20
36424;DHT22;22458;45.328;9.514;2023-04-01T21:36:43;15.70;50.40
36424;DHT22;22458;45.328;9.514;2023-04-01T21:42:28;15.30;51.50
36424;DHT22;22458;45.328;9.514;2023-04-01T21:48:19;14.90;52.90
36424;DHT22;22458;45.328;9.514;2023-04-01T21:53:46;15.00;53.10
36424;DHT22;22458;45.328;9.514;2023-04-01T22:02:24;15.00;53.20
36424;DHT22;22458;45.328;9.514;2023-04-01T22:15:40;15.10;53.20
36424;DHT22;22458;45.328;9.514;2023-04-01T22:18:34;15.10;52.90
36424;DHT22;22458;45.328;9.514;2023-04-01T22:21:24;15.10;52.60
36424;DHT22;22458;45.328;9.514;2023-04-01T22:26:53;15.20;52.40
36424;DHT22;22458;45.328;9.514;2023-04-01T22:29:24;15.20;52.90
36424;DHT22;22458;45.328;9.514;2023-04-01T22:31:55;15.10;52.30
36424;DHT22;22458;45.328;9.514;2023-04-01T22:34:38;15.10;52.40
36424;DHT22;22458;45.328;9.514;2023-04-01T22:37:18;15.10;52.60
36424;DHT22;22458;45.328;9.514;2023-04-01T22:48:01;14.90;52.10
36424;DHT22;22458;45.328;9.514;2023-04-01T22:55:51;14.90;51.80
36424;DHT22;22458;45.328;9.514;2023-04-01T22:58:38;14.90;52.00
36424;DHT22;22458;45.328;9.514;2023-04-01T23:01:12;14.90;52.00
36424;DHT22;22458;45.328;9.514;2023-04-01T23:03:41;14.80;52.20
36424;DHT22;22458;45.328;9.514;2023-04-01T23:06:15;14.80;52.10
36424;DHT22;22458;45.328;9.514;2023-04-01T23:20:17;14.90;51.00
36424;DHT22;22458;45.328;9.514;2023-04-01T23:28:18;14.80;51.20
36424;DHT22;22458;45.328;9.514;2023-04-01T23:30:48;14.70;51.20
36424;DHT22;22458;45.328;9.514;2023-04-01T23:33:30;14.60;51.50
36424;DHT22;22458;45.328;9.514;2023-04-01T23:38:35;14.10;52.40
36424;DHT22;22458;45.328;9.514;2023-04-01T23:41:02;14.10;52.70
36424;DHT22;22458;45.328;9.514;2023-04-01T23:43:38;13.90;53.10
36424;DHT22;22458;45.328;9.514;2023-04-01T23:46:06;13.80;53.30
36424;DHT22;22458;45.328;9.514;2023-04-01T23:48:46;13.70;53.40
36424;DHT22;22458;45.328;9.514;2023-04-01T23:53:47;13.80;53.20
36424;DHT22;22458;45.328;9.514;2023-04-01T23:56:17;13.80;53.20
36424;DHT22;22458;45.328;9.514;2023-04-01T23:58:48;13.80;53.30
